createdAt,value
2018-11-04T00:00:47.023Z,4.10
2018-11-04T00:03:15.203Z,4.00
2018-11-04T00:05:43.428Z,4.00
2018-11-04T00:08:12.003Z,4.00
2018-11-04T00:10:40.210Z,4.00
2018-11-04T00:13:08.520Z,4.00
2018-11-04T00:15:37.388Z,4.00
2018-11-04T00:18:05.859Z,3.90
2018-11-04T00:20:34.084Z,3.90
2018-11-04T00:23:02.830Z,3.90
2018-11-04T00:25:31.093Z,3.90
2018-11-04T00:27:59.283Z,3.90
2018-11-04T00:30:27.853Z,3.80
2018-11-04T00:32:56.027Z,3.90
2018-11-04T00:35:24.314Z,3.80
2018-11-04T00:37:53.082Z,3.90
2018-11-04T00:40:21.282Z,3.80
2018-11-04T00:42:49.468Z,3.80
2018-11-04T00:45:18.030Z,3.80
2018-11-04T00:47:46.194Z,3.80
2018-11-04T00:50:15.532Z,3.80
2018-11-04T00:52:44.059Z,3.70
2018-11-04T00:55:12.706Z,3.80
2018-11-04T00:57:41.196Z,3.70
2018-11-04T01:00:11.903Z,3.70
2018-11-04T01:02:40.079Z,3.70
2018-11-04T01:05:08.847Z,3.70
2018-11-04T01:07:37.691Z,3.70
2018-11-04T01:10:06.766Z,3.70
2018-11-04T01:12:34.994Z,3.70
2018-11-04T01:15:03.211Z,3.70
2018-11-04T01:17:31.459Z,3.70
2018-11-04T01:19:59.644Z,3.70
2018-11-04T01:22:28.543Z,3.60
2018-11-04T01:24:56.794Z,3.70
2018-11-04T01:27:24.978Z,3.70
2018-11-04T01:29:53.517Z,3.60
2018-11-04T01:32:21.727Z,3.60
2018-11-04T01:34:49.966Z,3.60
2018-11-04T01:37:18.822Z,3.60
2018-11-04T01:39:46.994Z,3.60
2018-11-04T01:42:15.182Z,3.60
2018-11-04T01:44:43.962Z,3.50
2018-11-04T01:47:12.127Z,3.50
2018-11-04T01:49:40.310Z,3.50
2018-11-04T01:52:08.876Z,3.50
2018-11-04T01:54:37.094Z,3.50
2018-11-04T01:57:05.343Z,3.50
2018-11-04T01:59:33.922Z,3.40
2018-11-04T02:02:02.099Z,3.40
2018-11-04T02:04:30.883Z,3.40
2018-11-04T02:06:59.082Z,3.40
2018-11-04T02:09:27.283Z,3.40
2018-11-04T02:11:55.479Z,3.40
2018-11-04T02:14:24.194Z,3.40
2018-11-04T02:16:52.379Z,3.40
2018-11-04T02:19:20.582Z,3.40
2018-11-04T02:21:49.238Z,3.30
2018-11-04T02:24:17.422Z,3.30
2018-11-04T02:26:45.607Z,3.30
2018-11-04T02:29:13.963Z,3.30
2018-11-04T02:31:42.148Z,3.30
2018-11-04T02:34:10.336Z,3.20
2018-11-04T02:36:38.825Z,3.30
2018-11-04T02:39:07.447Z,3.20
2018-11-04T02:41:35.634Z,3.20
2018-11-04T02:44:03.916Z,3.20
2018-11-04T02:46:32.131Z,3.20
2018-11-04T02:49:00.316Z,3.20
2018-11-04T02:51:28.812Z,3.20
2018-11-04T02:53:56.995Z,3.20
2018-11-04T02:56:25.163Z,3.20
2018-11-04T02:58:53.582Z,3.20
2018-11-04T03:01:21.807Z,3.20
2018-11-04T03:03:50.000Z,3.20
2018-11-04T03:06:18.627Z,3.20
2018-11-04T03:08:46.871Z,3.20
2018-11-04T03:11:15.103Z,3.20
2018-11-04T03:13:43.675Z,3.10
2018-11-04T03:16:11.930Z,3.00
2018-11-04T03:18:40.119Z,3.00
2018-11-04T03:21:08.910Z,2.90
2018-11-04T03:23:38.063Z,2.90
2018-11-04T03:26:06.263Z,2.90
2018-11-04T03:28:34.968Z,3.00
2018-11-04T03:31:03.166Z,3.00
2018-11-04T03:33:31.370Z,3.00
2018-11-04T03:36:00.420Z,3.00
2018-11-04T03:38:28.611Z,3.10
2018-11-04T03:40:56.898Z,3.10
2018-11-04T03:43:25.411Z,3.10
2018-11-04T03:45:53.626Z,3.10
2018-11-04T03:48:21.895Z,3.10
2018-11-04T03:50:50.689Z,3.10
2018-11-04T03:53:18.867Z,3.00
2018-11-04T03:55:47.047Z,3.00
2018-11-04T03:58:15.343Z,3.00
2018-11-04T04:00:43.522Z,3.00
2018-11-04T04:03:11.700Z,3.00
2018-11-04T04:05:39.903Z,3.00
2018-11-04T04:08:08.086Z,3.00
2018-11-04T04:10:36.269Z,3.00
2018-11-04T04:13:04.892Z,2.90
2018-11-04T04:15:33.063Z,2.90
2018-11-04T04:18:01.271Z,2.90
2018-11-04T04:20:29.584Z,2.90
2018-11-04T04:22:57.770Z,2.90
2018-11-04T04:25:25.951Z,2.90
2018-11-04T04:27:54.537Z,2.90
2018-11-04T04:30:22.758Z,2.90
2018-11-04T04:32:50.941Z,2.90
2018-11-04T04:35:19.480Z,2.90
2018-11-04T04:37:47.691Z,2.90
2018-11-04T04:40:15.867Z,2.90
2018-11-04T04:42:44.803Z,2.90
2018-11-04T04:45:12.984Z,2.90
2018-11-04T04:47:41.154Z,3.00
2018-11-04T04:50:09.926Z,3.00
2018-11-04T04:52:38.102Z,3.00
2018-11-04T04:55:06.374Z,3.00
2018-11-04T04:57:34.554Z,2.90
2018-11-04T05:00:02.730Z,3.00
2018-11-04T05:02:30.913Z,2.90
2018-11-04T05:04:59.236Z,2.90
2018-11-04T05:07:27.430Z,2.90
2018-11-04T05:09:55.627Z,2.90
2018-11-04T05:12:23.891Z,2.90
2018-11-04T05:14:52.088Z,2.90
2018-11-04T05:17:20.278Z,2.80
2018-11-04T05:19:48.703Z,2.90
2018-11-04T05:22:16.896Z,2.90
2018-11-04T05:24:45.075Z,2.90
2018-11-04T05:27:13.559Z,2.80
2018-11-04T05:29:41.751Z,2.80
2018-11-04T05:32:09.943Z,2.80
2018-11-04T05:34:38.238Z,2.80
2018-11-04T05:37:06.418Z,2.80
2018-11-04T05:39:34.890Z,2.80
2018-11-04T05:42:03.539Z,2.80
2018-11-04T05:44:31.823Z,2.80
2018-11-04T05:47:00.003Z,2.70
2018-11-04T05:49:28.262Z,2.70
2018-11-04T05:51:56.450Z,2.70
2018-11-04T05:54:24.700Z,2.70
2018-11-04T05:56:52.934Z,2.70
2018-11-04T05:59:21.103Z,2.60
2018-11-04T06:01:49.278Z,2.60
2018-11-04T06:04:17.498Z,2.60
2018-11-04T06:06:45.687Z,2.60
2018-11-04T06:09:13.870Z,2.60
2018-11-04T06:11:42.086Z,2.60
2018-11-04T06:14:12.941Z,2.50
2018-11-04T06:16:41.187Z,2.60
2018-11-04T06:19:09.931Z,2.60
2018-11-04T06:21:38.107Z,2.50
2018-11-04T06:24:06.289Z,2.50
2018-11-04T06:26:35.003Z,2.50
2018-11-04T06:29:03.191Z,2.50
2018-11-04T06:31:31.402Z,2.50
2018-11-04T06:34:00.035Z,2.50
2018-11-04T06:36:28.221Z,2.50
2018-11-04T06:38:56.479Z,2.60
2018-11-04T06:41:24.871Z,2.60
2018-11-04T06:43:53.051Z,2.60
2018-11-04T06:46:21.330Z,2.60
2018-11-04T06:48:53.319Z,2.70
2018-11-04T06:51:21.548Z,2.70
2018-11-04T06:53:49.742Z,2.70
2018-11-04T06:56:21.002Z,2.70
2018-11-04T06:58:50.424Z,2.80
2018-11-04T07:01:24.527Z,2.80
2018-11-04T07:04:04.111Z,2.80
2018-11-04T07:06:38.655Z,2.80
2018-11-04T07:09:10.008Z,2.80
2018-11-04T07:11:38.266Z,2.80
2018-11-04T07:14:06.475Z,2.90
2018-11-04T07:16:34.804Z,2.90
2018-11-04T07:19:04.655Z,2.90
2018-11-04T07:21:32.999Z,3.00
2018-11-04T07:24:01.460Z,3.00
2018-11-04T07:26:30.042Z,3.00
2018-11-04T07:28:58.402Z,3.10
2018-11-04T07:31:26.828Z,3.10
2018-11-04T07:33:55.481Z,3.20
2018-11-04T07:36:23.988Z,3.30
2018-11-04T07:38:52.934Z,3.40
2018-11-04T07:41:22.598Z,3.40
2018-11-04T07:43:50.973Z,3.50
2018-11-04T07:46:19.742Z,3.60
2018-11-04T07:48:51.940Z,3.70
2018-11-04T07:51:20.366Z,3.80
2018-11-04T07:53:49.080Z,3.80
2018-11-04T07:56:17.719Z,3.90
2018-11-04T07:58:47.046Z,4.00
2018-11-04T08:01:15.240Z,4.00
2018-11-04T08:03:44.207Z,4.10
2018-11-04T08:06:12.620Z,4.20
2018-11-04T08:08:40.918Z,4.20
2018-11-04T08:11:09.173Z,4.20
2018-11-04T08:13:37.814Z,4.30
2018-11-04T08:16:06.311Z,4.30
2018-11-04T08:18:34.990Z,4.50
2018-11-04T08:21:03.173Z,4.50
2018-11-04T08:23:31.351Z,4.60
2018-11-04T08:25:59.835Z,4.70
2018-11-04T08:28:28.095Z,4.90
2018-11-04T08:30:56.309Z,5.00
2018-11-04T08:33:24.519Z,5.20
2018-11-04T08:35:52.707Z,5.30
2018-11-04T08:38:20.887Z,5.20
2018-11-04T08:40:49.116Z,5.20
2018-11-04T08:43:17.318Z,5.10
2018-11-04T08:45:45.976Z,5.10
2018-11-04T08:48:15.242Z,5.10
2018-11-04T08:50:43.785Z,5.10
2018-11-04T08:53:12.666Z,5.20
2018-11-04T08:55:41.716Z,5.20
2018-11-04T08:58:09.997Z,5.20
2018-11-04T09:00:38.200Z,5.20
2018-11-04T09:03:06.683Z,5.30
2018-11-04T09:05:34.900Z,5.40
2018-11-04T09:08:03.095Z,5.60
2018-11-04T09:10:31.307Z,5.70
2018-11-04T09:12:59.722Z,5.80
2018-11-04T09:15:28.100Z,6.00
2018-11-04T09:17:57.420Z,6.10
2018-11-04T09:20:25.611Z,6.10
2018-11-04T09:22:53.851Z,6.30
2018-11-04T09:25:22.706Z,6.30
2018-11-04T09:27:50.912Z,6.50
2018-11-04T09:30:19.104Z,6.60
2018-11-04T09:32:47.512Z,6.70
2018-11-04T09:35:15.750Z,6.80
2018-11-04T09:37:43.899Z,7.00
2018-11-04T09:40:13.644Z,7.00
2018-11-04T09:42:41.862Z,7.10
2018-11-04T09:45:10.653Z,7.30
2018-11-04T09:47:39.666Z,7.40
2018-11-04T09:50:09.325Z,7.50
2018-11-04T09:52:37.818Z,7.60
2018-11-04T09:55:06.587Z,7.70
2018-11-04T09:57:34.775Z,7.80
2018-11-04T10:00:03.088Z,7.90
2018-11-04T10:02:31.288Z,8.00
2018-11-04T10:04:59.466Z,8.10
2018-11-04T10:07:27.649Z,8.30
2018-11-04T10:09:55.883Z,8.40
2018-11-04T10:12:24.083Z,8.50
2018-11-04T10:14:52.266Z,8.80
2018-11-04T10:17:20.479Z,8.90
2018-11-04T10:19:48.841Z,9.00
2018-11-04T10:22:16.879Z,9.10
2018-11-04T10:24:45.132Z,9.30
2018-11-04T10:27:13.966Z,9.50
2018-11-04T10:29:42.186Z,9.60
2018-11-04T10:32:10.552Z,9.70
2018-11-04T10:34:38.739Z,9.70
2018-11-04T10:37:07.009Z,9.80
2018-11-04T10:39:35.735Z,9.80
2018-11-04T10:42:03.924Z,10.00
2018-11-04T10:44:32.103Z,10.20
2018-11-04T10:47:00.759Z,10.30
2018-11-04T10:49:29.032Z,10.30
2018-11-04T10:51:57.166Z,10.40
2018-11-04T10:54:25.543Z,10.50
2018-11-04T10:56:53.743Z,10.70
2018-11-04T10:59:22.768Z,10.80
2018-11-04T11:01:51.335Z,11.00
2018-11-04T11:04:19.559Z,11.10
2018-11-04T11:06:47.730Z,11.30
2018-11-04T11:09:15.963Z,11.20
2018-11-04T11:11:44.163Z,11.10
2018-11-04T11:14:12.365Z,11.20
2018-11-04T11:16:40.576Z,11.30
2018-11-04T11:19:08.752Z,11.30
2018-11-04T11:21:37.690Z,11.30
2018-11-04T11:24:06.024Z,11.40
2018-11-04T11:26:34.255Z,11.50
2018-11-04T11:29:02.447Z,11.70
2018-11-04T11:31:30.762Z,11.90
2018-11-04T11:33:58.953Z,11.90
2018-11-04T11:36:27.146Z,12.00
2018-11-04T11:38:55.451Z,12.00
2018-11-04T11:41:23.649Z,11.90
2018-11-04T11:43:51.822Z,11.90
2018-11-04T11:46:21.150Z,12.00
2018-11-04T11:48:49.342Z,12.20
2018-11-04T11:51:17.552Z,12.30
2018-11-04T11:53:45.979Z,12.20
2018-11-04T11:56:14.287Z,12.20
2018-11-04T11:58:42.480Z,12.20
2018-11-04T12:01:11.068Z,12.40
2018-11-04T12:03:39.270Z,12.30
2018-11-04T12:06:08.775Z,12.30
2018-11-04T12:08:37.419Z,12.40
2018-11-04T12:11:07.106Z,12.40
2018-11-04T12:13:35.314Z,12.40
2018-11-04T12:16:03.589Z,12.30
2018-11-04T12:18:31.738Z,12.30
2018-11-04T12:20:59.943Z,12.40
2018-11-04T12:23:28.223Z,12.50
2018-11-04T12:25:56.358Z,12.50
2018-11-04T12:28:25.235Z,12.60
2018-11-04T12:30:53.544Z,12.60
2018-11-04T12:33:21.799Z,12.40
2018-11-04T12:35:49.987Z,12.50
2018-11-04T12:38:18.295Z,12.60
2018-11-04T12:40:46.509Z,12.60
2018-11-04T12:43:14.691Z,12.60
2018-11-04T12:45:43.202Z,12.60
2018-11-04T12:48:11.776Z,12.70
2018-11-04T12:50:40.027Z,12.60
2018-11-04T12:53:08.352Z,12.60
2018-11-04T12:55:36.566Z,12.60
2018-11-04T12:58:05.009Z,12.70
2018-11-04T13:00:33.602Z,12.80
2018-11-04T13:03:01.781Z,13.00
2018-11-04T13:05:29.966Z,12.70
2018-11-04T13:07:58.174Z,12.80
2018-11-04T13:10:26.459Z,12.80
2018-11-04T13:12:54.659Z,12.90
2018-11-04T13:15:23.695Z,12.80
2018-11-04T13:17:51.923Z,12.80
2018-11-04T13:20:20.131Z,12.80
2018-11-04T13:22:48.359Z,12.80
2018-11-04T13:25:16.547Z,12.90
2018-11-04T13:27:44.754Z,13.00
2018-11-04T13:30:13.740Z,12.80
2018-11-04T13:32:41.963Z,12.90
2018-11-04T13:35:10.286Z,12.90
2018-11-04T13:37:38.510Z,12.90
2018-11-04T13:40:08.147Z,12.90
2018-11-04T13:42:36.341Z,12.80
2018-11-04T13:45:05.143Z,12.80
2018-11-04T13:47:33.327Z,12.70
2018-11-04T13:50:01.523Z,12.70
2018-11-04T13:52:30.821Z,12.70
2018-11-04T13:54:59.015Z,12.60
2018-11-04T13:57:27.202Z,12.70
2018-11-04T13:59:55.822Z,12.70
2018-11-04T14:02:24.010Z,12.70
2018-11-04T14:04:53.782Z,12.70
2018-11-04T14:07:22.511Z,12.60
2018-11-04T14:09:50.691Z,12.60
2018-11-04T14:12:18.927Z,12.60
2018-11-04T14:14:47.460Z,12.60
2018-11-04T14:17:15.659Z,12.60
2018-11-04T14:19:43.847Z,12.60
2018-11-04T14:22:12.507Z,12.60
2018-11-04T14:24:41.350Z,12.60
2018-11-04T14:27:09.588Z,12.60
2018-11-04T14:29:38.142Z,12.60
2018-11-04T14:32:06.459Z,12.70
2018-11-04T14:34:34.687Z,12.60
2018-11-04T14:37:03.239Z,12.60
2018-11-04T14:39:31.435Z,12.60
2018-11-04T14:41:59.638Z,12.60
2018-11-04T14:44:28.301Z,12.60
2018-11-04T14:46:56.525Z,12.50
2018-11-04T14:49:24.716Z,12.50
2018-11-04T14:51:53.007Z,12.40
2018-11-04T14:54:21.215Z,12.30
2018-11-04T14:56:49.422Z,12.30
2018-11-04T14:59:17.650Z,12.30
2018-11-04T15:01:46.190Z,12.20
2018-11-04T15:04:14.302Z,12.20
2018-11-04T15:06:42.551Z,12.10
2018-11-04T15:09:10.754Z,12.10
2018-11-04T15:11:38.951Z,12.10
2018-11-04T15:14:07.296Z,12.10
2018-11-04T15:16:35.491Z,12.00
2018-11-04T15:19:03.722Z,12.00
2018-11-04T15:21:32.715Z,11.90
2018-11-04T15:24:00.854Z,11.80
2018-11-04T15:26:29.096Z,11.80
2018-11-04T15:28:57.283Z,11.80
2018-11-04T15:31:25.463Z,11.70
2018-11-04T15:33:53.876Z,11.70
2018-11-04T15:36:23.034Z,11.70
2018-11-04T15:38:51.309Z,11.60
2018-11-04T15:41:19.938Z,11.60
2018-11-04T15:43:48.218Z,11.40
2018-11-04T15:46:16.479Z,11.50
2018-11-04T15:48:44.628Z,11.30
2018-11-04T15:51:13.119Z,11.30
2018-11-04T15:53:41.349Z,11.30
2018-11-04T15:56:09.530Z,11.30
2018-11-04T15:58:37.791Z,11.10
2018-11-04T16:01:06.054Z,11.00
2018-11-04T16:03:34.434Z,10.90
2018-11-04T16:06:02.706Z,10.90
2018-11-04T16:08:30.886Z,10.70
2018-11-04T16:10:59.772Z,10.70
2018-11-04T16:13:28.418Z,10.60
2018-11-04T16:15:56.613Z,10.50
2018-11-04T16:18:25.408Z,10.50
2018-11-04T16:20:54.168Z,10.40
2018-11-04T16:23:22.354Z,10.40
2018-11-04T16:25:50.530Z,10.40
2018-11-04T16:28:18.890Z,10.40
2018-11-04T16:30:47.414Z,10.40
2018-11-04T16:33:15.700Z,10.30
2018-11-04T16:35:43.900Z,10.30
2018-11-04T16:38:12.095Z,10.30
2018-11-04T16:40:40.287Z,10.30
2018-11-04T16:43:09.983Z,10.20
2018-11-04T16:45:38.181Z,10.10
2018-11-04T16:48:06.371Z,10.20
2018-11-04T16:50:34.583Z,10.10
2018-11-04T16:53:02.790Z,10.00
2018-11-04T16:55:30.978Z,9.90
2018-11-04T16:57:59.263Z,9.90
2018-11-04T17:00:27.446Z,9.80
2018-11-04T17:02:55.670Z,9.70
2018-11-04T17:05:24.178Z,9.70
2018-11-04T17:07:52.299Z,9.60
2018-11-04T17:10:21.346Z,9.50
2018-11-04T17:12:50.054Z,9.50
2018-11-04T17:15:18.879Z,9.40
2018-11-04T17:17:47.047Z,9.40
2018-11-04T17:20:18.239Z,9.30
2018-11-04T17:22:46.759Z,9.30
2018-11-04T17:25:14.994Z,9.30
2018-11-04T17:27:43.326Z,9.20
2018-11-04T17:30:13.631Z,9.20
2018-11-04T17:32:41.896Z,9.20
2018-11-04T17:35:12.110Z,9.20
2018-11-04T17:37:40.643Z,9.20
2018-11-04T17:40:09.916Z,9.20
2018-11-04T17:42:38.483Z,9.20
2018-11-04T17:45:07.562Z,9.20
2018-11-04T17:47:35.775Z,9.30
2018-11-04T17:50:04.740Z,9.30
2018-11-04T17:52:32.911Z,9.30
2018-11-04T17:55:01.578Z,9.30
2018-11-04T17:57:30.122Z,9.20
2018-11-04T17:59:58.307Z,9.20
2018-11-04T18:02:26.491Z,9.20
2018-11-04T18:04:54.779Z,9.20
2018-11-04T18:07:23.063Z,9.20
2018-11-04T18:09:51.250Z,9.10
2018-11-04T18:12:19.839Z,9.10
2018-11-04T18:14:48.063Z,9.10
2018-11-04T18:17:16.246Z,9.10
2018-11-04T18:19:45.056Z,9.10
2018-11-04T18:22:13.303Z,9.00
2018-11-04T18:24:49.894Z,8.90
2018-11-04T18:27:18.643Z,8.80
2018-11-04T18:29:46.890Z,8.70
2018-11-04T18:32:15.399Z,8.70
2018-11-04T18:34:46.571Z,8.70
2018-11-04T18:37:14.815Z,8.70
2018-11-04T18:39:43.188Z,8.70
2018-11-04T18:42:11.363Z,8.60
2018-11-04T18:44:39.625Z,8.60
2018-11-04T18:47:09.759Z,8.60
2018-11-04T18:49:38.110Z,8.60
2018-11-04T18:52:06.732Z,8.60
2018-11-04T18:54:35.004Z,8.50
2018-11-04T18:57:03.186Z,8.50
2018-11-04T18:59:31.399Z,8.50
2018-11-04T19:02:01.407Z,8.60
2018-11-04T19:04:29.719Z,8.50
2018-11-04T19:06:57.900Z,8.60
2018-11-04T19:09:26.719Z,8.60
2018-11-04T19:11:54.959Z,8.60
2018-11-04T19:14:23.117Z,8.60
2018-11-04T19:16:51.850Z,8.50
2018-11-04T19:19:20.291Z,8.50
2018-11-04T19:21:48.483Z,8.60
2018-11-04T19:24:17.274Z,8.60
2018-11-04T19:26:45.504Z,8.70
2018-11-04T19:29:13.755Z,8.70
2018-11-04T19:31:42.260Z,8.70
2018-11-04T19:34:10.435Z,8.70
2018-11-04T19:36:39.611Z,8.70
2018-11-04T19:39:10.047Z,8.70
2018-11-04T19:41:38.334Z,8.70
2018-11-04T19:44:06.531Z,8.80
2018-11-04T19:46:34.818Z,8.80
2018-11-04T19:49:03.003Z,8.70
2018-11-04T19:51:31.202Z,8.70
2018-11-04T19:54:00.115Z,8.70
2018-11-04T19:56:30.802Z,8.70
2018-11-04T19:58:59.724Z,8.60
2018-11-04T20:01:28.428Z,8.60
2018-11-04T20:03:57.139Z,8.60
2018-11-04T20:06:25.791Z,8.60
2018-11-04T20:08:59.323Z,8.50
2018-11-04T20:11:27.950Z,8.50
2018-11-04T20:14:04.025Z,8.40
2018-11-04T20:16:32.268Z,8.50
2018-11-04T20:19:05.912Z,8.50
2018-11-04T20:21:34.882Z,8.50
2018-11-04T20:24:09.467Z,8.50
2018-11-04T20:26:38.099Z,8.50
2018-11-04T20:29:06.417Z,8.60
2018-11-04T20:33:43.475Z,8.60
2018-11-04T20:36:11.666Z,8.60
2018-11-04T20:38:45.566Z,8.60
2018-11-04T20:41:19.071Z,8.60
2018-11-04T20:43:47.739Z,8.60
2018-11-04T20:46:15.931Z,8.60
2018-11-04T20:49:48.150Z,8.60
2018-11-04T20:52:16.795Z,8.60
2018-11-04T20:54:45.087Z,8.60
2018-11-04T20:57:19.162Z,8.60
2018-11-04T20:59:47.323Z,8.50
2018-11-04T21:02:15.569Z,8.50
2018-11-04T21:04:43.813Z,8.40
2018-11-04T21:07:12.003Z,8.40
2018-11-04T21:09:40.252Z,8.40
2018-11-04T21:12:09.359Z,8.40
2018-11-04T21:14:37.604Z,8.40
2018-11-04T21:17:05.877Z,8.40
2018-11-04T21:19:34.094Z,8.40
2018-11-04T21:22:02.381Z,8.40
2018-11-04T21:24:30.647Z,8.40
2018-11-04T21:26:58.890Z,8.40
2018-11-04T21:29:27.539Z,8.40
2018-11-04T21:31:55.347Z,8.30
2018-11-04T21:34:24.249Z,8.30
2018-11-04T21:36:52.523Z,8.30
2018-11-04T21:39:20.711Z,8.30
2018-11-04T21:41:49.194Z,8.30
2018-11-04T21:44:17.431Z,8.20
2018-11-04T21:46:45.582Z,8.20
2018-11-04T21:49:13.948Z,8.10
2018-11-04T21:51:42.132Z,8.10
2018-11-04T21:54:10.315Z,8.00
2018-11-04T21:56:38.695Z,8.00
2018-11-04T21:59:06.783Z,8.00
2018-11-04T22:01:34.963Z,7.90
2018-11-04T22:04:03.672Z,7.90
2018-11-04T22:06:31.795Z,7.90
2018-11-04T22:08:59.991Z,7.90
2018-11-04T22:11:28.206Z,7.90
2018-11-04T22:13:57.396Z,7.90
2018-11-04T22:16:25.386Z,7.90
2018-11-04T22:18:53.606Z,7.90
2018-11-04T22:21:21.799Z,7.90
2018-11-04T22:23:49.994Z,7.90
2018-11-04T22:26:18.618Z,7.90
2018-11-04T22:28:46.830Z,7.90
2018-11-04T22:31:15.010Z,8.00
2018-11-04T22:33:43.782Z,8.10
2018-11-04T22:36:12.099Z,8.10
2018-11-04T22:38:40.327Z,8.10
2018-11-04T22:41:08.897Z,8.10
2018-11-04T22:43:37.082Z,8.10
2018-11-04T22:46:05.479Z,8.20
2018-11-04T22:48:34.395Z,8.20
2018-11-04T22:51:02.591Z,8.30
2018-11-04T22:53:30.784Z,8.30
2018-11-04T22:55:59.479Z,8.30
2018-11-04T22:58:27.630Z,8.40
2018-11-04T23:00:59.767Z,8.40
2018-11-04T23:03:28.068Z,8.50
2018-11-04T23:05:56.431Z,8.50
2018-11-04T23:08:25.003Z,8.50
2018-11-04T23:10:53.195Z,8.50
2018-11-04T23:13:21.383Z,8.60
2018-11-04T23:15:50.010Z,8.60
2018-11-04T23:18:18.190Z,8.60
2018-11-04T23:20:46.369Z,8.60
2018-11-04T23:23:14.575Z,8.60
2018-11-04T23:25:42.789Z,8.60
2018-11-04T23:28:10.962Z,8.60
2018-11-04T23:30:39.514Z,8.60
2018-11-04T23:33:07.711Z,8.60
2018-11-04T23:35:35.881Z,8.60
2018-11-04T23:38:04.103Z,8.60
2018-11-04T23:40:32.296Z,8.60
2018-11-04T23:43:00.478Z,8.60
2018-11-04T23:45:29.038Z,8.60
2018-11-04T23:47:57.218Z,8.70
2018-11-04T23:50:25.406Z,8.60
2018-11-04T23:52:53.702Z,8.60
2018-11-04T23:55:21.915Z,8.50
2018-11-04T23:57:50.116Z,8.50
